Steedman, South Carolina
Current Conditions -  °F | °C
As of 10:56 AM on Thursday 29 Jan 2015 (Local Time) from KCAE Reporting Station
Broken Clouds Broken Clouds  
Wind Chill: 46°   Ceiling: 22000
Heat Index: 49°   Visibility: 10mi
Dew Point: 23°   Wind: 7mph
Humidity: 36%   Direction: NA
Pressure: 30.35"   Gusts: NA
Location:  33.8822°N, 81.433°W
Report Text: KCAE 291556Z VRB06KT 10SM BKN220 09/M05 A3035 RMK AO2 SLP278 T00941050
Loading
Personal Weather Stations






























Interactive Weather Map New forecast layout! Learn more

10-Day Weather Forecast

Advertisements
Track Severe Weather on mobile